sensor_id;sensor_type;location;lat;lon;timestamp;P1;durP1;ratioP1;P2;durP2;ratioP2
50104;SDS011;47690;39.202;-77.198;2023-08-21T00:00:28;7.65;;;6.32;;
50104;SDS011;47690;39.202;-77.198;2023-08-21T00:02:58;7.88;;;6.50;;
50104;SDS011;47690;39.202;-77.198;2023-08-21T00:05:30;7.18;;;6.18;;
50104;SDS011;47690;39.202;-77.198;2023-08-21T00:07:59;7.50;;;6.15;;
50104;SDS011;47690;39.202;-77.198;2023-08-21T00:10:30;7.40;;;6.30;;
50104;SDS011;47690;39.202;-77.198;2023-08-21T00:13:02;6.30;;;5.68;;
50104;SDS011;47690;39.202;-77.198;2023-08-21T00:15:36;7.20;;;6.00;;
50104;SDS011;47690;39.202;-77.198;2023-08-21T00:18:11;7.22;;;5.93;;
50104;SDS011;47690;39.202;-77.198;2023-08-21T00:20:44;7.57;;;6.47;;
50104;SDS011;47690;39.202;-77.198;2023-08-21T00:23:14;7.78;;;6.57;;
50104;SDS011;47690;39.202;-77.198;2023-08-21T00:25:46;7.32;;;6.60;;
50104;SDS011;47690;39.202;-77.198;2023-08-21T00:28:17;7.47;;;6.25;;
50104;SDS011;47690;39.202;-77.198;2023-08-21T00:30:50;6.65;;;5.95;;
50104;SDS011;47690;39.202;-77.198;2023-08-21T00:33:20;7.88;;;6.45;;
50104;SDS011;47690;39.202;-77.198;2023-08-21T00:35:52;6.88;;;5.95;;
50104;SDS011;47690;39.202;-77.198;2023-08-21T00:38:24;8.02;;;6.20;;
50104;SDS011;47690;39.202;-77.198;2023-08-21T00:40:55;7.13;;;6.28;;
50104;SDS011;47690;39.202;-77.198;2023-08-21T00:43:29;7.70;;;6.18;;
50104;SDS011;47690;39.202;-77.198;2023-08-21T00:46:10;7.07;;;6.30;;
50104;SDS011;47690;39.202;-77.198;2023-08-21T00:48:45;7.53;;;6.07;;
50104;SDS011;47690;39.202;-77.198;2023-08-21T00:51:21;6.88;;;5.68;;
50104;SDS011;47690;39.202;-77.198;2023-08-21T00:53:51;8.85;;;6.43;;
50104;SDS011;47690;39.202;-77.198;2023-08-21T00:56:30;7.53;;;6.30;;
50104;SDS011;47690;39.202;-77.198;2023-08-21T00:59:12;6.57;;;5.88;;
50104;SDS011;47690;39.202;-77.198;2023-08-21T01:01:56;7.00;;;6.30;;
50104;SDS011;47690;39.202;-77.198;2023-08-21T01:04:43;7.10;;;6.40;;
50104;SDS011;47690;39.202;-77.198;2023-08-21T01:07:26;7.68;;;6.03;;
50104;SDS011;47690;39.202;-77.198;2023-08-21T01:10:20;8.52;;;6.47;;
50104;SDS011;47690;39.202;-77.198;2023-08-21T01:13:34;7.32;;;5.78;;
50104;SDS011;47690;39.202;-77.198;2023-08-21T01:16:29;7.05;;;5.93;;
50104;SDS011;47690;39.202;-77.198;2023-08-21T01:19:59;6.70;;;6.00;;
50104;SDS011;47690;39.202;-77.198;2023-08-21T01:22:51;8.25;;;6.45;;
50104;SDS011;47690;39.202;-77.198;2023-08-21T01:25:43;6.78;;;5.45;;
50104;SDS011;47690;39.202;-77.198;2023-08-21T01:28:41;6.85;;;5.95;;
50104;SDS011;47690;39.202;-77.198;2023-08-21T01:31:29;6.43;;;5.60;;
50104;SDS011;47690;39.202;-77.198;2023-08-21T01:34:40;6.10;;;5.40;;
50104;SDS011;47690;39.202;-77.198;2023-08-21T01:37:15;5.95;;;5.35;;
50104;SDS011;47690;39.202;-77.198;2023-08-21T01:40:30;6.70;;;5.50;;
50104;SDS011;47690;39.202;-77.198;2023-08-21T01:43:15;6.70;;;5.65;;
50104;SDS011;47690;39.202;-77.198;2023-08-21T01:45:54;7.03;;;6.18;;
50104;SDS011;47690;39.202;-77.198;2023-08-21T01:48:34;6.43;;;5.70;;
50104;SDS011;47690;39.202;-77.198;2023-08-21T01:51:18;6.95;;;6.03;;
50104;SDS011;47690;39.202;-77.198;2023-08-21T01:54:13;7.25;;;5.82;;
50104;SDS011;47690;39.202;-77.198;2023-08-21T01:56:43;7.13;;;6.13;;
50104;SDS011;47690;39.202;-77.198;2023-08-21T01:59:15;8.45;;;6.75;;
50104;SDS011;47690;39.202;-77.198;2023-08-21T02:01:47;6.97;;;6.07;;
50104;SDS011;47690;39.202;-77.198;2023-08-21T02:04:17;7.93;;;6.32;;
50104;SDS011;47690;39.202;-77.198;2023-08-21T02:06:49;7.40;;;6.35;;
50104;SDS011;47690;39.202;-77.198;2023-08-21T02:09:23;7.68;;;6.43;;
50104;SDS011;47690;39.202;-77.198;2023-08-21T02:12:10;9.02;;;7.07;;
50104;SDS011;47690;39.202;-77.198;2023-08-21T02:14:39;7.65;;;6.63;;
50104;SDS011;47690;39.202;-77.198;2023-08-21T02:17:10;8.85;;;7.25;;
50104;SDS011;47690;39.202;-77.198;2023-08-21T02:19:41;7.88;;;6.82;;
50104;SDS011;47690;39.202;-77.198;2023-08-21T02:22:11;9.25;;;6.70;;
50104;SDS011;47690;39.202;-77.198;2023-08-21T02:24:40;7.20;;;5.93;;
50104;SDS011;47690;39.202;-77.198;2023-08-21T02:27:10;8.23;;;6.50;;
50104;SDS011;47690;39.202;-77.198;2023-08-21T02:29:42;7.40;;;6.35;;
50104;SDS011;47690;39.202;-77.198;2023-08-21T02:32:10;8.13;;;6.60;;
50104;SDS011;47690;39.202;-77.198;2023-08-21T02:34:42;6.70;;;5.65;;
50104;SDS011;47690;39.202;-77.198;2023-08-21T02:37:12;7.40;;;5.70;;
50104;SDS011;47690;39.202;-77.198;2023-08-21T02:39:42;7.38;;;5.85;;
50104;SDS011;47690;39.202;-77.198;2023-08-21T02:42:12;7.85;;;6.10;;
50104;SDS011;47690;39.202;-77.198;2023-08-21T02:44:45;7.28;;;6.22;;
50104;SDS011;47690;39.202;-77.198;2023-08-21T02:47:18;7.15;;;6.20;;
50104;SDS011;47690;39.202;-77.198;2023-08-21T02:49:48;7.32;;;6.20;;
50104;SDS011;47690;39.202;-77.198;2023-08-21T02:52:19;7.35;;;6.25;;
50104;SDS011;47690;39.202;-77.198;2023-08-21T02:54:50;6.85;;;6.15;;
50104;SDS011;47690;39.202;-77.198;2023-08-21T02:57:24;6.78;;;5.93;;
50104;SDS011;47690;39.202;-77.198;2023-08-21T02:59:54;7.20;;;6.47;;
50104;SDS011;47690;39.202;-77.198;2023-08-21T03:02:26;6.68;;;5.43;;
50104;SDS011;47690;39.202;-77.198;2023-08-21T03:04:58;7.43;;;6.40;;
50104;SDS011;47690;39.202;-77.198;2023-08-21T03:07:30;7.22;;;5.97;;
50104;SDS011;47690;39.202;-77.198;2023-08-21T03:10:00;7.85;;;5.82;;
50104;SDS011;47690;39.202;-77.198;2023-08-21T03:12:34;6.85;;;6.07;;
50104;SDS011;47690;39.202;-77.198;2023-08-21T03:15:09;7.93;;;6.55;;
50104;SDS011;47690;39.202;-77.198;2023-08-21T03:17:39;7.13;;;6.32;;
50104;SDS011;47690;39.202;-77.198;2023-08-21T03:20:10;7.13;;;6.22;;
50104;SDS011;47690;39.202;-77.198;2023-08-21T03:22:45;6.82;;;5.80;;
50104;SDS011;47690;39.202;-77.198;2023-08-21T03:25:14;8.45;;;6.13;;
50104;SDS011;47690;39.202;-77.198;2023-08-21T03:27:49;7.72;;;6.18;;
50104;SDS011;47690;39.202;-77.198;2023-08-21T03:30:18;7.18;;;6.10;;
50104;SDS011;47690;39.202;-77.198;2023-08-21T03:32:50;8.73;;;6.28;;
50104;SDS011;47690;39.202;-77.198;2023-08-21T03:35:21;6.95;;;6.03;;
50104;SDS011;47690;39.202;-77.198;2023-08-21T03:37:50;7.32;;;6.20;;
50104;SDS011;47690;39.202;-77.198;2023-08-21T03:40:21;6.95;;;6.10;;
50104;SDS011;47690;39.202;-77.198;2023-08-21T03:42:52;7.05;;;6.20;;
50104;SDS011;47690;39.202;-77.198;2023-08-21T03:45:22;6.70;;;6.00;;
50104;SDS011;47690;39.202;-77.198;2023-08-21T03:47:54;8.27;;;6.70;;
50104;SDS011;47690;39.202;-77.198;2023-08-21T03:50:24;6.97;;;6.28;;
50104;SDS011;47690;39.202;-77.198;2023-08-21T03:52:55;10.48;;;7.38;;
50104;SDS011;47690;39.202;-77.198;2023-08-21T03:55:27;7.95;;;6.57;;
50104;SDS011;47690;39.202;-77.198;2023-08-21T03:57:57;7.60;;;6.40;;
50104;SDS011;47690;39.202;-77.198;2023-08-21T04:00:32;7.43;;;6.38;;
50104;SDS011;47690;39.202;-77.198;2023-08-21T04:03:09;7.32;;;6.22;;
50104;SDS011;47690;39.202;-77.198;2023-08-21T04:05:41;8.27;;;6.20;;
50104;SDS011;47690;39.202;-77.198;2023-08-21T04:08:11;7.20;;;6.00;;
50104;SDS011;47690;39.202;-77.198;2023-08-21T04:10:42;8.18;;;6.55;;
50104;SDS011;47690;39.202;-77.198;2023-08-21T04:13:11;7.60;;;6.20;;
50104;SDS011;47690;39.202;-77.198;2023-08-21T04:15:45;7.53;;;6.70;;
50104;SDS011;47690;39.202;-77.198;2023-08-21T04:18:14;7.72;;;6.57;;
50104;SDS011;47690;39.202;-77.198;2023-08-21T04:21:04;7.95;;;6.57;;
50104;SDS011;47690;39.202;-77.198;2023-08-21T04:23:37;7.68;;;6.53;;
50104;SDS011;47690;39.202;-77.198;2023-08-21T04:26:10;8.07;;;6.53;;
50104;SDS011;47690;39.202;-77.198;2023-08-21T04:28:42;7.57;;;6.78;;
50104;SDS011;47690;39.202;-77.198;2023-08-21T04:31:13;7.55;;;6.40;;
50104;SDS011;47690;39.202;-77.198;2023-08-21T04:33:47;6.40;;;5.55;;
50104;SDS011;47690;39.202;-77.198;2023-08-21T04:36:18;8.15;;;6.05;;
50104;SDS011;47690;39.202;-77.198;2023-08-21T04:38:51;6.05;;;5.45;;
50104;SDS011;47690;39.202;-77.198;2023-08-21T04:41:21;7.35;;;5.95;;
50104;SDS011;47690;39.202;-77.198;2023-08-21T04:43:51;6.95;;;5.85;;
50104;SDS011;47690;39.202;-77.198;2023-08-21T04:46:26;7.53;;;6.23;;
50104;SDS011;47690;39.202;-77.198;2023-08-21T04:49:12;6.35;;;5.50;;
50104;SDS011;47690;39.202;-77.198;2023-08-21T04:51:44;6.82;;;6.13;;
50104;SDS011;47690;39.202;-77.198;2023-08-21T04:54:14;7.43;;;6.57;;
50104;SDS011;47690;39.202;-77.198;2023-08-21T04:56:46;7.15;;;6.43;;
50104;SDS011;47690;39.202;-77.198;2023-08-21T04:59:18;7.13;;;6.07;;
50104;SDS011;47690;39.202;-77.198;2023-08-21T05:01:51;8.38;;;6.07;;
50104;SDS011;47690;39.202;-77.198;2023-08-21T05:04:26;7.65;;;6.38;;
50104;SDS011;47690;39.202;-77.198;2023-08-21T05:06:58;8.93;;;6.88;;
50104;SDS011;47690;39.202;-77.198;2023-08-21T05:09:41;8.30;;;6.88;;
50104;SDS011;47690;39.202;-77.198;2023-08-21T05:12:15;8.57;;;6.80;;
50104;SDS011;47690;39.202;-77.198;2023-08-21T05:14:48;7.88;;;6.05;;
50104;SDS011;47690;39.202;-77.198;2023-08-21T05:17:19;7.03;;;5.75;;
50104;SDS011;47690;39.202;-77.198;2023-08-21T05:19:54;7.38;;;6.22;;
50104;SDS011;47690;39.202;-77.198;2023-08-21T05:22:26;7.20;;;6.13;;
50104;SDS011;47690;39.202;-77.198;2023-08-21T05:24:58;6.97;;;6.05;;
50104;SDS011;47690;39.202;-77.198;2023-08-21T05:27:31;7.50;;;6.67;;
50104;SDS011;47690;39.202;-77.198;2023-08-21T05:30:05;8.55;;;6.78;;
50104;SDS011;47690;39.202;-77.198;2023-08-21T05:32:40;6.75;;;6.03;;
50104;SDS011;47690;39.202;-77.198;2023-08-21T05:35:12;6.03;;;5.35;;
50104;SDS011;47690;39.202;-77.198;2023-08-21T05:37:42;6.95;;;6.05;;
50104;SDS011;47690;39.202;-77.198;2023-08-21T05:40:14;6.93;;;5.95;;
50104;SDS011;47690;39.202;-77.198;2023-08-21T05:42:47;8.93;;;6.25;;
50104;SDS011;47690;39.202;-77.198;2023-08-21T05:45:18;6.63;;;5.78;;
50104;SDS011;47690;39.202;-77.198;2023-08-21T05:47:50;7.00;;;5.97;;
50104;SDS011;47690;39.202;-77.198;2023-08-21T05:50:23;7.30;;;5.88;;
50104;SDS011;47690;39.202;-77.198;2023-08-21T05:52:55;6.90;;;5.93;;
50104;SDS011;47690;39.202;-77.198;2023-08-21T05:55:28;6.93;;;5.82;;
50104;SDS011;47690;39.202;-77.198;2023-08-21T05:58:03;8.15;;;6.13;;
50104;SDS011;47690;39.202;-77.198;2023-08-21T06:00:39;7.40;;;5.68;;
50104;SDS011;47690;39.202;-77.198;2023-08-21T06:03:15;7.93;;;6.20;;
50104;SDS011;47690;39.202;-77.198;2023-08-21T06:06:14;7.38;;;6.25;;
50104;SDS011;47690;39.202;-77.198;2023-08-21T06:08:45;6.60;;;5.57;;
50104;SDS011;47690;39.202;-77.198;2023-08-21T06:11:17;6.80;;;5.30;;
50104;SDS011;47690;39.202;-77.198;2023-08-21T06:13:50;6.82;;;5.90;;
50104;SDS011;47690;39.202;-77.198;2023-08-21T06:16:21;6.95;;;5.82;;
50104;SDS011;47690;39.202;-77.198;2023-08-21T06:18:50;8.10;;;6.10;;
50104;SDS011;47690;39.202;-77.198;2023-08-21T06:21:21;7.85;;;6.32;;
50104;SDS011;47690;39.202;-77.198;2023-08-21T06:23:51;7.88;;;6.30;;
50104;SDS011;47690;39.202;-77.198;2023-08-21T06:26:25;7.03;;;6.32;;
50104;SDS011;47690;39.202;-77.198;2023-08-21T06:28:55;6.28;;;5.68;;
50104;SDS011;47690;39.202;-77.198;2023-08-21T06:31:27;6.55;;;5.82;;
50104;SDS011;47690;39.202;-77.198;2023-08-21T06:33:58;6.38;;;5.55;;
50104;SDS011;47690;39.202;-77.198;2023-08-21T06:36:38;6.88;;;5.72;;
50104;SDS011;47690;39.202;-77.198;2023-08-21T06:39:11;7.03;;;6.00;;
50104;SDS011;47690;39.202;-77.198;2023-08-21T06:41:45;6.75;;;6.05;;
50104;SDS011;47690;39.202;-77.198;2023-08-21T06:44:18;7.10;;;6.28;;
50104;SDS011;47690;39.202;-77.198;2023-08-21T06:49:29;6.38;;;5.57;;
50104;SDS011;47690;39.202;-77.198;2023-08-21T06:51:59;6.55;;;5.70;;
50104;SDS011;47690;39.202;-77.198;2023-08-21T06:54:38;6.80;;;5.70;;
50104;SDS011;47690;39.202;-77.198;2023-08-21T06:57:10;7.10;;;5.97;;
50104;SDS011;47690;39.202;-77.198;2023-08-21T06:59:42;7.18;;;6.25;;
50104;SDS011;47690;39.202;-77.198;2023-08-21T07:02:11;7.40;;;6.45;;
50104;SDS011;47690;39.202;-77.198;2023-08-21T07:04:43;7.25;;;6.18;;
50104;SDS011;47690;39.202;-77.198;2023-08-21T07:07:13;6.82;;;5.90;;
50104;SDS011;47690;39.202;-77.198;2023-08-21T07:09:45;8.00;;;6.63;;
50104;SDS011;47690;39.202;-77.198;2023-08-21T07:12:18;6.72;;;5.93;;
50104;SDS011;47690;39.202;-77.198;2023-08-21T07:14:54;7.28;;;5.82;;
50104;SDS011;47690;39.202;-77.198;2023-08-21T07:17:24;6.07;;;5.35;;
50104;SDS011;47690;39.202;-77.198;2023-08-21T07:19:56;8.13;;;6.28;;
50104;SDS011;47690;39.202;-77.198;2023-08-21T07:22:27;6.88;;;5.90;;
50104;SDS011;47690;39.202;-77.198;2023-08-21T07:25:11;7.63;;;5.93;;
50104;SDS011;47690;39.202;-77.198;2023-08-21T07:27:43;7.43;;;6.15;;
50104;SDS011;47690;39.202;-77.198;2023-08-21T07:30:18;7.03;;;6.00;;
50104;SDS011;47690;39.202;-77.198;2023-08-21T07:32:52;8.82;;;6.70;;
50104;SDS011;47690;39.202;-77.198;2023-08-21T07:35:25;7.43;;;6.13;;
50104;SDS011;47690;39.202;-77.198;2023-08-21T07:37:58;7.43;;;6.10;;
50104;SDS011;47690;39.202;-77.198;2023-08-21T07:40:33;6.72;;;5.90;;
50104;SDS011;47690;39.202;-77.198;2023-08-21T07:43:10;6.70;;;5.95;;
50104;SDS011;47690;39.202;-77.198;2023-08-21T07:45:41;8.00;;;5.93;;
50104;SDS011;47690;39.202;-77.198;2023-08-21T07:48:13;7.88;;;6.18;;
50104;SDS011;47690;39.202;-77.198;2023-08-21T07:50:49;7.82;;;6.35;;
50104;SDS011;47690;39.202;-77.198;2023-08-21T07:53:23;7.88;;;6.07;;
50104;SDS011;47690;39.202;-77.198;2023-08-21T07:55:54;10.75;;;5.70;;
50104;SDS011;47690;39.202;-77.198;2023-08-21T07:58:30;6.35;;;5.53;;
50104;SDS011;47690;39.202;-77.198;2023-08-21T08:01:05;7.05;;;5.75;;
50104;SDS011;47690;39.202;-77.198;2023-08-21T08:03:39;7.10;;;5.25;;
50104;SDS011;47690;39.202;-77.198;2023-08-21T08:06:13;6.72;;;5.72;;
50104;SDS011;47690;39.202;-77.198;2023-08-21T08:08:43;6.47;;;5.45;;
50104;SDS011;47690;39.202;-77.198;2023-08-21T08:11:17;6.88;;;6.00;;
50104;SDS011;47690;39.202;-77.198;2023-08-21T08:13:47;7.85;;;6.03;;
50104;SDS011;47690;39.202;-77.198;2023-08-21T08:16:21;7.18;;;5.50;;
50104;SDS011;47690;39.202;-77.198;2023-08-21T08:18:52;6.03;;;5.30;;
50104;SDS011;47690;39.202;-77.198;2023-08-21T08:21:25;6.20;;;5.03;;
50104;SDS011;47690;39.202;-77.198;2023-08-21T08:23:57;7.95;;;6.05;;
50104;SDS011;47690;39.202;-77.198;2023-08-21T08:26:27;7.05;;;5.85;;
50104;SDS011;47690;39.202;-77.198;2023-08-21T08:29:00;6.90;;;6.15;;
50104;SDS011;47690;39.202;-77.198;2023-08-21T08:31:39;7.53;;;5.57;;
50104;SDS011;47690;39.202;-77.198;2023-08-21T08:34:13;6.28;;;5.55;;
50104;SDS011;47690;39.202;-77.198;2023-08-21T08:36:44;7.20;;;6.00;;
50104;SDS011;47690;39.202;-77.198;2023-08-21T08:39:16;7.45;;;6.10;;
50104;SDS011;47690;39.202;-77.198;2023-08-21T08:42:01;6.50;;;5.80;;
50104;SDS011;47690;39.202;-77.198;2023-08-21T08:44:38;7.05;;;5.95;;
50104;SDS011;47690;39.202;-77.198;2023-08-21T08:47:10;7.55;;;6.10;;
50104;SDS011;47690;39.202;-77.198;2023-08-21T08:49:43;7.95;;;6.40;;
50104;SDS011;47690;39.202;-77.198;2023-08-21T08:52:16;7.32;;;6.00;;
50104;SDS011;47690;39.202;-77.198;2023-08-21T08:54:50;6.70;;;5.75;;
50104;SDS011;47690;39.202;-77.198;2023-08-21T08:57:24;7.38;;;5.43;;
50104;SDS011;47690;39.202;-77.198;2023-08-21T08:59:57;6.20;;;5.57;;
50104;SDS011;47690;39.202;-77.198;2023-08-21T09:02:39;6.43;;;5.30;;
50104;SDS011;47690;39.202;-77.198;2023-08-21T09:05:11;7.38;;;5.40;;
50104;SDS011;47690;39.202;-77.198;2023-08-21T09:07:46;7.40;;;5.65;;
50104;SDS011;47690;39.202;-77.198;2023-08-21T09:13:15;5.93;;;4.88;;
50104;SDS011;47690;39.202;-77.198;2023-08-21T09:15:54;7.85;;;6.15;;
50104;SDS011;47690;39.202;-77.198;2023-08-21T09:18:30;6.88;;;5.65;;
50104;SDS011;47690;39.202;-77.198;2023-08-21T09:21:08;6.85;;;5.90;;
50104;SDS011;47690;39.202;-77.198;2023-08-21T09:23:44;7.75;;;6.28;;
50104;SDS011;47690;39.202;-77.198;2023-08-21T09:26:20;9.32;;;6.85;;
50104;SDS011;47690;39.202;-77.198;2023-08-21T09:28:55;7.18;;;6.38;;
50104;SDS011;47690;39.202;-77.198;2023-08-21T09:31:38;7.25;;;6.25;;
50104;SDS011;47690;39.202;-77.198;2023-08-21T09:34:13;6.30;;;5.60;;
50104;SDS011;47690;39.202;-77.198;2023-08-21T09:36:43;6.30;;;5.55;;
50104;SDS011;47690;39.202;-77.198;2023-08-21T09:39:32;6.85;;;5.90;;
50104;SDS011;47690;39.202;-77.198;2023-08-21T09:42:11;7.28;;;5.68;;
50104;SDS011;47690;39.202;-77.198;2023-08-21T09:44:48;8.45;;;5.80;;
50104;SDS011;47690;39.202;-77.198;2023-08-21T09:47:25;6.45;;;5.40;;
50104;SDS011;47690;39.202;-77.198;2023-08-21T09:50:02;6.70;;;5.45;;
50104;SDS011;47690;39.202;-77.198;2023-08-21T09:52:42;7.05;;;5.35;;
50104;SDS011;47690;39.202;-77.198;2023-08-21T09:55:43;6.80;;;5.68;;
50104;SDS011;47690;39.202;-77.198;2023-08-21T09:58:22;7.05;;;5.90;;
50104;SDS011;47690;39.202;-77.198;2023-08-21T10:00:57;7.07;;;5.97;;
50104;SDS011;47690;39.202;-77.198;2023-08-21T10:03:30;7.07;;;5.88;;
50104;SDS011;47690;39.202;-77.198;2023-08-21T10:06:15;6.40;;;5.65;;
50104;SDS011;47690;39.202;-77.198;2023-08-21T10:08:54;6.53;;;5.80;;
50104;SDS011;47690;39.202;-77.198;2023-08-21T10:11:33;7.55;;;6.20;;
50104;SDS011;47690;39.202;-77.198;2023-08-21T10:14:20;5.93;;;4.75;;
50104;SDS011;47690;39.202;-77.198;2023-08-21T10:17:16;5.80;;;5.15;;
50104;SDS011;47690;39.202;-77.198;2023-08-21T10:20:05;5.45;;;4.85;;
50104;SDS011;47690;39.202;-77.198;2023-08-21T10:23:01;5.97;;;5.28;;
50104;SDS011;47690;39.202;-77.198;2023-08-21T10:26:07;6.47;;;5.35;;
50104;SDS011;47690;39.202;-77.198;2023-08-21T10:28:55;5.30;;;4.72;;
50104;SDS011;47690;39.202;-77.198;2023-08-21T10:31:42;5.38;;;4.72;;
50104;SDS011;47690;39.202;-77.198;2023-08-21T10:34:13;5.95;;;5.10;;
50104;SDS011;47690;39.202;-77.198;2023-08-21T10:39:55;7.40;;;5.32;;
50104;SDS011;47690;39.202;-77.198;2023-08-21T10:42:51;6.13;;;5.50;;
50104;SDS011;47690;39.202;-77.198;2023-08-21T10:45:29;5.65;;;4.93;;
50104;SDS011;47690;39.202;-77.198;2023-08-21T10:48:02;5.82;;;4.97;;
50104;SDS011;47690;39.202;-77.198;2023-08-21T10:50:58;6.38;;;5.35;;
50104;SDS011;47690;39.202;-77.198;2023-08-21T10:53:41;6.60;;;5.28;;
50104;SDS011;47690;39.202;-77.198;2023-08-21T10:56:11;6.85;;;5.35;;
50104;SDS011;47690;39.202;-77.198;2023-08-21T10:58:44;7.47;;;5.30;;
50104;SDS011;47690;39.202;-77.198;2023-08-21T11:01:23;6.22;;;5.57;;
50104;SDS011;47690;39.202;-77.198;2023-08-21T11:04:41;6.07;;;5.35;;
50104;SDS011;47690;39.202;-77.198;2023-08-21T11:07:15;6.43;;;5.60;;
50104;SDS011;47690;39.202;-77.198;2023-08-21T11:09:54;6.38;;;5.45;;
50104;SDS011;47690;39.202;-77.198;2023-08-21T11:12:51;7.63;;;5.97;;
50104;SDS011;47690;39.202;-77.198;2023-08-21T11:15:42;7.88;;;6.28;;
50104;SDS011;47690;39.202;-77.198;2023-08-21T11:18:29;6.45;;;5.70;;
50104;SDS011;47690;39.202;-77.198;2023-08-21T11:21:13;7.20;;;5.70;;
50104;SDS011;47690;39.202;-77.198;2023-08-21T11:23:46;6.28;;;5.45;;
50104;SDS011;47690;39.202;-77.198;2023-08-21T11:26:47;6.05;;;5.45;;
50104;SDS011;47690;39.202;-77.198;2023-08-21T11:29:44;6.03;;;5.05;;
50104;SDS011;47690;39.202;-77.198;2023-08-21T11:33:13;5.80;;;4.75;;
50104;SDS011;47690;39.202;-77.198;2023-08-21T11:35:46;5.82;;;5.07;;
50104;SDS011;47690;39.202;-77.198;2023-08-21T11:38:59;6.05;;;5.15;;
50104;SDS011;47690;39.202;-77.198;2023-08-21T11:41:55;6.40;;;4.90;;
50104;SDS011;47690;39.202;-77.198;2023-08-21T11:47:13;6.25;;;4.45;;
50104;SDS011;47690;39.202;-77.198;2023-08-21T11:50:11;6.18;;;5.40;;
50104;SDS011;47690;39.202;-77.198;2023-08-21T11:52:52;6.50;;;4.85;;
50104;SDS011;47690;39.202;-77.198;2023-08-21T11:55:29;6.28;;;5.35;;
50104;SDS011;47690;39.202;-77.198;2023-08-21T11:57:59;5.68;;;5.07;;
50104;SDS011;47690;39.202;-77.198;2023-08-21T12:00:30;6.78;;;6.07;;
50104;SDS011;47690;39.202;-77.198;2023-08-21T12:03:05;7.95;;;6.10;;
50104;SDS011;47690;39.202;-77.198;2023-08-21T12:05:42;6.75;;;6.05;;
50104;SDS011;47690;39.202;-77.198;2023-08-21T12:08:15;6.93;;;5.93;;
50104;SDS011;47690;39.202;-77.198;2023-08-21T12:10:51;7.15;;;6.18;;
50104;SDS011;47690;39.202;-77.198;2023-08-21T12:13:39;6.78;;;5.82;;
50104;SDS011;47690;39.202;-77.198;2023-08-21T12:16:14;6.88;;;6.07;;
50104;SDS011;47690;39.202;-77.198;2023-08-21T12:18:49;6.68;;;5.97;;
50104;SDS011;47690;39.202;-77.198;2023-08-21T12:21:20;6.97;;;6.10;;
50104;SDS011;47690;39.202;-77.198;2023-08-21T12:23:50;6.72;;;6.03;;
50104;SDS011;47690;39.202;-77.198;2023-08-21T12:26:21;6.90;;;5.88;;
50104;SDS011;47690;39.202;-77.198;2023-08-21T12:28:55;6.53;;;5.50;;
50104;SDS011;47690;39.202;-77.198;2023-08-21T12:31:27;7.32;;;6.32;;
50104;SDS011;47690;39.202;-77.198;2023-08-21T12:34:08;6.70;;;5.65;;
50104;SDS011;47690;39.202;-77.198;2023-08-21T12:36:53;7.75;;;6.55;;
50104;SDS011;47690;39.202;-77.198;2023-08-21T12:39:25;7.32;;;6.35;;
50104;SDS011;47690;39.202;-77.198;2023-08-21T12:41:55;7.90;;;6.75;;
50104;SDS011;47690;39.202;-77.198;2023-08-21T12:44:27;7.05;;;6.13;;
50104;SDS011;47690;39.202;-77.198;2023-08-21T12:47:05;6.47;;;5.80;;
50104;SDS011;47690;39.202;-77.198;2023-08-21T12:49:38;6.85;;;6.07;;
50104;SDS011;47690;39.202;-77.198;2023-08-21T12:52:11;7.05;;;6.28;;
50104;SDS011;47690;39.202;-77.198;2023-08-21T12:54:41;7.60;;;6.47;;
50104;SDS011;47690;39.202;-77.198;2023-08-21T12:57:11;8.02;;;6.63;;
50104;SDS011;47690;39.202;-77.198;2023-08-21T12:59:43;8.52;;;6.68;;
50104;SDS011;47690;39.202;-77.198;2023-08-21T13:02:15;7.35;;;6.32;;
50104;SDS011;47690;39.202;-77.198;2023-08-21T13:04:51;8.30;;;6.53;;
50104;SDS011;47690;39.202;-77.198;2023-08-21T13:07:27;7.13;;;6.40;;
50104;SDS011;47690;39.202;-77.198;2023-08-21T13:10:01;7.20;;;6.35;;
50104;SDS011;47690;39.202;-77.198;2023-08-21T13:12:41;8.85;;;7.57;;
50104;SDS011;47690;39.202;-77.198;2023-08-21T13:15:21;9.25;;;7.45;;
50104;SDS011;47690;39.202;-77.198;2023-08-21T13:17:52;8.15;;;7.20;;
50104;SDS011;47690;39.202;-77.198;2023-08-21T13:20:28;10.45;;;8.05;;
50104;SDS011;47690;39.202;-77.198;2023-08-21T13:22:58;9.25;;;7.53;;
50104;SDS011;47690;39.202;-77.198;2023-08-21T13:25:31;9.25;;;7.88;;
50104;SDS011;47690;39.202;-77.198;2023-08-21T13:28:10;9.00;;;7.70;;
50104;SDS011;47690;39.202;-77.198;2023-08-21T13:30:41;8.25;;;7.38;;
50104;SDS011;47690;39.202;-77.198;2023-08-21T13:33:17;9.43;;;7.90;;
50104;SDS011;47690;39.202;-77.198;2023-08-21T13:35:48;10.23;;;8.07;;
50104;SDS011;47690;39.202;-77.198;2023-08-21T13:38:19;9.57;;;7.80;;
50104;SDS011;47690;39.202;-77.198;2023-08-21T13:40:50;9.57;;;8.15;;
50104;SDS011;47690;39.202;-77.198;2023-08-21T13:43:22;8.93;;;7.65;;
50104;SDS011;47690;39.202;-77.198;2023-08-21T13:45:56;9.07;;;7.90;;
50104;SDS011;47690;39.202;-77.198;2023-08-21T13:48:29;9.18;;;7.85;;
50104;SDS011;47690;39.202;-77.198;2023-08-21T13:50:59;8.60;;;7.70;;
50104;SDS011;47690;39.202;-77.198;2023-08-21T13:53:30;11.00;;;8.80;;
50104;SDS011;47690;39.202;-77.198;2023-08-21T13:56:00;9.57;;;8.07;;
50104;SDS011;47690;39.202;-77.198;2023-08-21T13:58:35;8.80;;;7.45;;
50104;SDS011;47690;39.202;-77.198;2023-08-21T14:01:10;9.10;;;7.95;;
50104;SDS011;47690;39.202;-77.198;2023-08-21T14:03:41;8.32;;;7.53;;
50104;SDS011;47690;39.202;-77.198;2023-08-21T14:06:25;9.13;;;8.13;;
50104;SDS011;47690;39.202;-77.198;2023-08-21T14:08:55;14.60;;;7.90;;
50104;SDS011;47690;39.202;-77.198;2023-08-21T14:11:25;10.55;;;8.20;;
50104;SDS011;47690;39.202;-77.198;2023-08-21T14:13:55;9.65;;;8.20;;
50104;SDS011;47690;39.202;-77.198;2023-08-21T14:16:30;11.82;;;8.32;;
50104;SDS011;47690;39.202;-77.198;2023-08-21T14:19:13;8.70;;;7.78;;
50104;SDS011;47690;39.202;-77.198;2023-08-21T14:21:59;9.32;;;8.13;;
50104;SDS011;47690;39.202;-77.198;2023-08-21T14:24:38;8.68;;;7.78;;
50104;SDS011;47690;39.202;-77.198;2023-08-21T14:27:09;8.88;;;7.47;;
50104;SDS011;47690;39.202;-77.198;2023-08-21T14:29:39;8.80;;;7.50;;
50104;SDS011;47690;39.202;-77.198;2023-08-21T14:32:15;9.35;;;7.95;;
50104;SDS011;47690;39.202;-77.198;2023-08-21T14:34:46;10.35;;;8.05;;
50104;SDS011;47690;39.202;-77.198;2023-08-21T14:37:15;10.20;;;7.68;;
50104;SDS011;47690;39.202;-77.198;2023-08-21T14:39:47;10.52;;;7.80;;
50104;SDS011;47690;39.202;-77.198;2023-08-21T14:42:19;8.93;;;7.93;;
50104;SDS011;47690;39.202;-77.198;2023-08-21T14:44:51;9.13;;;7.68;;
50104;SDS011;47690;39.202;-77.198;2023-08-21T14:47:22;9.98;;;7.35;;
50104;SDS011;47690;39.202;-77.198;2023-08-21T14:49:55;10.00;;;8.30;;
50104;SDS011;47690;39.202;-77.198;2023-08-21T14:52:46;9.40;;;7.70;;
50104;SDS011;47690;39.202;-77.198;2023-08-21T14:55:41;8.88;;;7.90;;
50104;SDS011;47690;39.202;-77.198;2023-08-21T14:58:11;9.02;;;7.80;;
50104;SDS011;47690;39.202;-77.198;2023-08-21T15:00:41;9.00;;;8.00;;
50104;SDS011;47690;39.202;-77.198;2023-08-21T15:03:13;9.35;;;7.82;;
50104;SDS011;47690;39.202;-77.198;2023-08-21T15:05:43;8.48;;;7.55;;
50104;SDS011;47690;39.202;-77.198;2023-08-21T15:08:19;9.25;;;7.82;;
50104;SDS011;47690;39.202;-77.198;2023-08-21T15:11:00;8.55;;;7.65;;
50104;SDS011;47690;39.202;-77.198;2023-08-21T15:13:31;8.93;;;7.68;;
50104;SDS011;47690;39.202;-77.198;2023-08-21T15:16:14;9.50;;;8.30;;
50104;SDS011;47690;39.202;-77.198;2023-08-21T15:18:47;9.30;;;8.05;;
50104;SDS011;47690;39.202;-77.198;2023-08-21T15:21:20;9.40;;;8.07;;
50104;SDS011;47690;39.202;-77.198;2023-08-21T15:23:53;10.82;;;8.13;;